createdAt,value
2019-03-24T00:02:16.571Z,41.1
2019-03-24T00:07:22.204Z,39.6
2019-03-24T00:12:27.392Z,36.6
2019-03-24T00:17:32.595Z,36.1
2019-03-24T00:22:37.915Z,37.4
2019-03-24T00:27:43.481Z,46
2019-03-24T00:32:47.056Z,36.5
2019-03-24T00:37:52.183Z,36.8
2019-03-24T00:42:57.337Z,40.5
2019-03-24T00:48:02.578Z,39
2019-03-24T00:53:07.761Z,36.6
2019-03-24T00:58:13.362Z,39.8
2019-03-24T01:03:18.385Z,43.1
2019-03-24T01:08:23.695Z,43.5
2019-03-24T01:13:29.205Z,46.4
2019-03-24T01:18:34.813Z,46.8
2019-03-24T01:23:39.847Z,46.3
2019-03-24T01:28:45.106Z,44.5
2019-03-24T01:33:50.244Z,45.1
2019-03-24T01:38:55.470Z,45.7
2019-03-24T01:44:00.701Z,47.9
2019-03-24T01:49:06.021Z,48.9
2019-03-24T01:54:11.492Z,49.8
2019-03-24T01:59:15.316Z,52
2019-03-24T02:04:20.521Z,53.2
2019-03-24T02:09:26.025Z,52
2019-03-24T02:14:31.616Z,50.7
2019-03-24T02:19:37.160Z,51.1
2019-03-24T02:24:42.329Z,49.3
2019-03-24T02:29:47.785Z,50.5
2019-03-24T02:34:53.150Z,47.6
2019-03-24T02:39:58.525Z,46.9
2019-03-24T02:45:03.980Z,47
2019-03-24T02:50:09.212Z,48.2
2019-03-24T02:55:14.457Z,49.5
2019-03-24T03:05:24.106Z,47.4
2019-03-24T03:10:29.476Z,47.7
2019-03-24T03:15:34.501Z,46.9
2019-03-24T03:20:39.924Z,46.4
2019-03-24T03:25:43.883Z,45.8
2019-03-24T03:30:49.582Z,44.4
2019-03-24T03:35:54.813Z,46.6
2019-03-24T03:41:00.061Z,43.9
2019-03-24T03:46:05.404Z,45.5
2019-03-24T03:51:10.682Z,46.9
2019-03-24T03:56:15.850Z,46.6
2019-03-24T04:01:21.227Z,47.3
2019-03-24T04:06:26.362Z,48.4
2019-03-24T04:11:31.601Z,47.7
2019-03-24T04:16:36.728Z,46.9
2019-03-24T04:21:42.056Z,47.2
2019-03-24T04:26:47.266Z,46.4
2019-03-24T04:31:52.649Z,46.5
2019-03-24T04:36:58.034Z,44.8
2019-03-24T04:42:03.153Z,44.5
2019-03-24T04:47:17.402Z,44.5
2019-03-24T04:52:12.775Z,44.6
2019-03-24T04:57:17.792Z,42.6
2019-03-24T05:02:24.047Z,45.7
2019-03-24T05:07:27.876Z,41.7
2019-03-24T05:12:33.220Z,39.3
2019-03-24T05:17:38.885Z,39.1
2019-03-24T05:22:44.301Z,41
2019-03-24T05:27:49.500Z,37.3
2019-03-24T05:32:54.970Z,38
2019-03-24T05:38:00.191Z,38.3
2019-03-24T05:43:05.538Z,38.4
2019-03-24T05:48:10.909Z,37.5
2019-03-24T05:53:16.109Z,39.5
2019-03-24T05:58:21.037Z,194.4
2019-03-24T06:03:26.994Z,50.4
2019-03-24T06:08:31.994Z,66.8
2019-03-24T06:13:39.348Z,42.1
2019-03-24T06:18:44.305Z,37.4
2019-03-24T06:23:49.495Z,36.3
2019-03-24T06:28:54.570Z,36.6
2019-03-24T06:33:59.646Z,34.6
2019-03-24T06:39:04.805Z,32.9
2019-03-24T06:44:10.337Z,30.6
2019-03-24T06:49:15.815Z,30.3
2019-03-24T06:54:20.613Z,31.1
2019-03-24T06:59:26.029Z,29.4
2019-03-24T07:04:31.487Z,27.9
2019-03-24T07:09:35.292Z,25.8
2019-03-24T07:14:41.586Z,23.9
2019-03-24T07:19:45.438Z,24.4
2019-03-24T07:24:50.759Z,26.9
2019-03-24T07:29:55.852Z,26.8
2019-03-24T07:35:01.089Z,24.6
2019-03-24T07:40:06.306Z,26.3
2019-03-24T07:45:11.611Z,23
2019-03-24T07:50:16.732Z,20.5
2019-03-24T07:55:22.022Z,21.9
2019-03-24T08:00:25.849Z,20.8
2019-03-24T08:05:31.087Z,18.5
2019-03-24T08:10:36.303Z,17.1
2019-03-24T08:15:40.197Z,17.8
2019-03-24T08:20:45.455Z,16.2
2019-03-24T08:25:50.438Z,13.9
2019-03-24T08:30:55.377Z,14.7
2019-03-24T08:36:00.704Z,12.5
2019-03-24T08:41:05.793Z,13.3
2019-03-24T08:46:11.377Z,13
2019-03-24T08:51:17.028Z,13
2019-03-24T08:56:22.421Z,12.4
2019-03-24T09:01:27.856Z,13.2
2019-03-24T09:06:28.180Z,11.4
2019-03-24T09:11:33.542Z,11.7
2019-03-24T09:16:37.550Z,12.2
2019-03-24T09:21:41.526Z,11.3
2019-03-24T09:26:46.844Z,12.7
2019-03-24T09:31:52.343Z,12.6
2019-03-24T09:36:58.005Z,10.8
2019-03-24T09:42:03.273Z,11.9
2019-03-24T09:47:08.581Z,11
2019-03-24T09:52:12.272Z,12.7
2019-03-24T09:57:17.678Z,12.1
2019-03-24T10:02:23.268Z,12.5
2019-03-24T10:07:23.589Z,12.7
2019-03-24T10:12:28.860Z,13.2
2019-03-24T10:17:34.265Z,12.7
2019-03-24T10:22:38.017Z,13.4
2019-03-24T10:27:43.240Z,12.5
2019-03-24T10:32:48.720Z,11.8
2019-03-24T10:37:52.516Z,10.6
2019-03-24T10:42:57.628Z,9.5
2019-03-24T10:48:02.956Z,10.1
2019-03-24T10:53:08.078Z,10.2
2019-03-24T10:58:13.576Z,9.6
2019-03-24T11:03:17.509Z,9.6
2019-03-24T11:08:22.912Z,9
2019-03-24T11:13:27.986Z,9.3
2019-03-24T11:18:33.234Z,9.2
2019-03-24T11:23:39.041Z,8.8
2019-03-24T11:28:44.188Z,8.7
2019-03-24T11:33:51.386Z,8.1
2019-03-24T11:38:55.392Z,8.2
2019-03-24T11:44:01.349Z,7.6
2019-03-24T11:49:06.660Z,9.1
2019-03-24T11:54:12.216Z,8
2019-03-24T11:59:16.361Z,7
2019-03-24T12:04:22.539Z,7.2
2019-03-24T12:09:29.241Z,6.3
2019-03-24T12:14:34.547Z,6.1
2019-03-24T12:19:40.370Z,6.2
2019-03-24T12:24:45.932Z,6.3
2019-03-24T12:29:49.757Z,6.4
2019-03-24T12:34:55.162Z,5.6
2019-03-24T12:40:00.509Z,6.2
2019-03-24T12:45:05.536Z,6.4
2019-03-24T12:50:11.162Z,7.2
2019-03-24T12:55:20.453Z,7.2
2019-03-24T13:00:25.713Z,7
2019-03-24T13:05:30.845Z,6.9
2019-03-24T13:10:36.317Z,7.2
2019-03-24T13:15:40.004Z,7.9
2019-03-24T13:20:45.382Z,8.7
2019-03-24T13:25:51.585Z,8.8
2019-03-24T13:30:57.069Z,9.2
2019-03-24T13:36:02.221Z,8
2019-03-24T13:41:07.884Z,8.9
2019-03-24T13:46:13.865Z,8.7
2019-03-24T13:51:18.133Z,8.2
2019-03-24T13:56:23.192Z,8.2
2019-03-24T14:01:28.337Z,6.8
2019-03-24T14:06:33.416Z,8.2
2019-03-24T14:11:38.947Z,6
2019-03-24T14:16:46.451Z,6
2019-03-24T14:21:50.560Z,6.4
2019-03-24T14:26:56.000Z,5.8
2019-03-24T14:32:01.295Z,6
2019-03-24T14:37:06.662Z,5.6
2019-03-24T14:42:15.609Z,6.1
2019-03-24T14:47:20.755Z,5.4
2019-03-24T14:52:26.011Z,4.9
2019-03-24T14:57:31.053Z,5.2
2019-03-24T15:02:36.046Z,5.1
2019-03-24T15:07:41.177Z,5.3
2019-03-24T15:12:46.969Z,5.8
2019-03-24T15:17:50.817Z,5.5
2019-03-24T15:22:55.868Z,5.6
2019-03-24T15:27:59.726Z,6.1
2019-03-24T15:33:05.376Z,5.9
2019-03-24T15:38:10.564Z,5.9
2019-03-24T15:43:15.708Z,5.3
2019-03-24T15:48:20.925Z,5.2
2019-03-24T15:53:26.133Z,5.8
2019-03-24T15:58:31.215Z,6.5
2019-03-24T16:03:36.499Z,5.5
2019-03-24T16:08:42.159Z,7.3
2019-03-24T16:13:47.476Z,6
2019-03-24T16:18:52.484Z,5.6
2019-03-24T16:23:57.936Z,6.8
2019-03-24T16:29:03.209Z,5.6
2019-03-24T16:34:08.660Z,5.7
2019-03-24T16:39:13.798Z,6.1
2019-03-24T16:44:19.112Z,7
2019-03-24T16:49:24.424Z,7.8
2019-03-24T16:54:29.788Z,7.4
2019-03-24T16:59:34.935Z,6.8
2019-03-24T17:04:40.296Z,6.3
2019-03-24T17:09:44.175Z,7.7
2019-03-24T17:14:49.520Z,7.8
2019-03-24T17:19:54.656Z,7.6
2019-03-24T17:25:00.207Z,11.5
2019-03-24T17:30:09.917Z,8.8
2019-03-24T17:35:15.117Z,10.4
2019-03-24T17:40:20.494Z,11.5
2019-03-24T17:45:25.595Z,11.6
2019-03-24T17:50:35.555Z,11.5
2019-03-24T17:55:40.261Z,10.7
2019-03-24T18:00:45.668Z,10.8
2019-03-24T18:05:49.870Z,11.1
2019-03-24T18:10:55.164Z,13.4
2019-03-24T18:16:00.560Z,14.3
2019-03-24T18:21:06.445Z,13.9
2019-03-24T18:26:11.860Z,14.3
2019-03-24T18:31:16.947Z,18.9
2019-03-24T18:36:22.210Z,20.8
2019-03-24T18:41:30.380Z,18.3
2019-03-24T18:46:35.724Z,17.4
2019-03-24T18:51:40.793Z,16.9
2019-03-24T18:56:46.153Z,29
2019-03-24T19:01:51.420Z,23.8
2019-03-24T19:06:57.840Z,23
2019-03-24T19:12:03.343Z,24
2019-03-24T19:17:10.989Z,33.7
2019-03-24T19:22:16.299Z,39.6
2019-03-24T19:27:21.601Z,36.9
2019-03-24T19:32:26.604Z,32.9
2019-03-24T19:37:34.173Z,28.5
2019-03-24T19:42:39.488Z,22.4
2019-03-24T19:47:44.676Z,20.4
2019-03-24T19:52:48.551Z,20.9
2019-03-24T19:57:53.675Z,20.7
2019-03-24T20:02:59.076Z,20.6
2019-03-24T20:08:05.434Z,21.2
2019-03-24T20:13:09.150Z,21.8
2019-03-24T20:18:14.387Z,20.1
2019-03-24T20:23:19.539Z,19.1
2019-03-24T20:28:24.817Z,17
2019-03-24T20:33:32.388Z,16.1
2019-03-24T20:38:36.506Z,16
2019-03-24T20:43:40.699Z,16.8
2019-03-24T20:48:44.419Z,15.8
2019-03-24T20:53:50.325Z,14.7
2019-03-24T20:58:55.636Z,15.2
2019-03-24T21:04:00.673Z,18
2019-03-24T21:09:06.190Z,15.8
2019-03-24T21:14:11.638Z,14.7
2019-03-24T21:19:17.100Z,16.1
2019-03-24T21:24:22.095Z,15.5
2019-03-24T21:29:27.294Z,15.6
2019-03-24T21:34:32.571Z,15.7
2019-03-24T21:39:37.812Z,18.9
2019-03-24T21:44:43.235Z,23.2
2019-03-24T21:49:48.574Z,26.9
2019-03-24T21:54:53.708Z,28.8
2019-03-24T22:00:01.640Z,31.7
2019-03-24T22:05:06.594Z,30.8
2019-03-24T22:10:12.061Z,26.7
2019-03-24T22:15:17.311Z,25.1
2019-03-24T22:20:22.796Z,24.6
2019-03-24T22:25:28.161Z,23.9
2019-03-24T22:30:33.814Z,19.4
2019-03-24T22:35:38.935Z,19.2
2019-03-24T22:40:44.354Z,18.2
2019-03-24T22:45:49.928Z,16.2
2019-03-24T22:50:55.397Z,16.6
2019-03-24T22:56:00.725Z,19.8
2019-03-24T23:01:06.457Z,18.7
2019-03-24T23:06:10.252Z,19.5
2019-03-24T23:11:15.649Z,19
2019-03-24T23:16:21.199Z,19.6
2019-03-24T23:21:26.690Z,20.1
2019-03-24T23:26:31.811Z,20.6
2019-03-24T23:31:36.898Z,18.9
2019-03-24T23:36:41.945Z,18.3
2019-03-24T23:41:47.659Z,18.4
2019-03-24T23:46:53.705Z,17.8
2019-03-24T23:51:59.123Z,19.3
2019-03-24T23:57:02.953Z,17.5
